Time;durP1;ratioP1;P1;durP2;ratioP2;P2;SDS_P1;SDS_P2;PMS_P1;PMS_P2;Temp;Humidity;BMP_temperature;BMP_pressure;BME280_temperature;BME280_humidity;BME280_pressure;Samples;Min_cycle;Max_cycle;Signal;HPM_P1;HPM_P2
2022/11/23 00:01:24;;;;;;;19.48;2.85;;;;;;;8.17;100.00;99271.78;5094746;28;20055;-82
2022/11/23 00:03:51;;;;;;;16.83;3.38;;;;;;;8.13;100.00;99270.31;5095345;28;20073;-82
2022/11/23 00:06:18;;;;;;;12.57;2.55;;;;;;;8.15;100.00;99271.06;5081954;28;20067;-82
2022/11/23 00:08:44;;;;;;;10.45;2.25;;;;;;;8.21;100.00;99277.78;5071704;28;20043;-82
2022/11/23 00:11:24;;;;;;;17.15;2.30;;;;;;;8.15;100.00;99276.50;5096732;28;20071;-82
2022/11/23 00:13:52;;;;;;;12.48;2.63;;;;;;;8.20;100.00;99282.38;5097390;28;20103;-82
2022/11/23 00:16:27;;;;;;;19.35;2.20;;;;;;;8.27;100.00;99280.78;5076354;28;20052;-81
2022/11/23 00:18:55;;;;;;;12.35;2.55;;;;;;;8.25;100.00;99291.00;5081778;28;20029;-82
2022/11/23 00:21:21;;;;;;;12.68;2.22;;;;;;;8.27;100.00;99293.56;5111189;28;20025;-82
2022/11/23 00:23:47;;;;;;;14.73;3.03;;;;;;;8.30;100.00;99293.28;5060422;28;20039;-82
2022/11/23 00:26:13;;;;;;;14.32;2.95;;;;;;;8.29;100.00;99281.50;5051813;28;20127;-82
2022/11/23 00:28:39;;;;;;;15.98;2.50;;;;;;;8.21;100.00;99285.97;5060142;28;20071;-82
2022/11/23 00:31:06;;;;;;;9.30;1.75;;;;;;;8.21;100.00;99292.25;5076400;28;20440;-82
2022/11/23 00:33:31;;;;;;;15.68;2.53;;;;;;;8.23;100.00;99281.22;5087264;28;20093;-83
2022/11/23 00:36:05;;;;;;;14.57;2.13;;;;;;;8.20;100.00;99303.31;5081156;28;20043;-82
2022/11/23 00:38:30;;;;;;;15.48;2.30;;;;;;;8.26;100.00;99292.72;5101397;28;20048;-82
2022/11/23 00:41:01;;;;;;;15.45;2.08;;;;;;;8.29;100.00;99300.56;5067241;28;20027;-82
2022/11/23 00:43:28;;;;;;;14.38;2.35;;;;;;;8.30;100.00;99301.47;5083942;28;20055;-82
2022/11/23 00:46:11;;;;;;;11.65;2.38;;;;;;;8.31;100.00;99305.03;5055476;28;20483;-82
2022/11/23 00:48:37;;;;;;;10.63;2.08;;;;;;;8.28;100.00;99300.75;5099274;28;20471;-82
2022/11/23 00:51:05;;;;;;;16.13;2.45;;;;;;;8.28;100.00;99300.75;5082893;28;20048;-82
2022/11/23 00:53:31;;;;;;;15.20;2.42;;;;;;;8.27;100.00;99296.28;5099056;28;20054;-82
2022/11/23 00:55:57;;;;;;;8.85;2.50;;;;;;;8.32;100.00;99309.50;5047473;28;20036;-82
2022/11/23 00:58:23;;;;;;;7.80;1.63;;;;;;;8.30;100.00;99304.19;5062993;28;20434;-83
2022/11/23 01:00:48;;;;;;;15.20;2.10;;;;;;;8.26;100.00;99302.75;5049940;28;20082;-83
2022/11/23 01:03:15;;;;;;;19.83;1.95;;;;;;;8.34;100.00;99321.97;5067018;28;20032;-82
2022/11/23 01:05:41;;;;;;;17.98;2.10;;;;;;;8.40;100.00;99326.00;5073481;28;20063;-83
2022/11/23 01:08:07;;;;;;;16.95;1.58;;;;;;;8.28;100.00;99312.50;5079340;28;20040;-82
2022/11/23 01:10:33;;;;;;;17.42;2.20;;;;;;;8.39;100.00;99322.38;5087250;28;20130;-83
2022/11/23 01:12:59;;;;;;;16.42;2.65;;;;;;;8.34;100.00;99313.78;5064662;28;20072;-83
2022/11/23 01:15:25;;;;;;;6.30;1.55;;;;;;;8.35;100.00;99317.41;5078179;28;20031;-82
2022/11/23 01:17:51;;;;;;;12.50;1.52;;;;;;;8.49;100.00;99324.28;5076872;28;20028;-83
2022/11/23 01:20:16;;;;;;;11.98;1.80;;;;;;;8.43;100.00;99329.31;5096691;28;20032;-83
2022/11/23 01:22:42;;;;;;;13.30;1.65;;;;;;;8.41;100.00;99319.50;5061871;28;20502;-82
2022/11/23 01:25:07;;;;;;;17.50;1.77;;;;;;;8.41;100.00;99317.66;5056840;28;20036;-83
2022/11/23 01:27:33;;;;;;;16.75;2.42;;;;;;;8.41;100.00;99328.56;5083238;28;20032;-83
2022/11/23 01:29:58;;;;;;;11.57;1.50;;;;;;;8.43;100.00;99323.88;5099510;28;20036;-83
2022/11/23 01:32:24;;;;;;;20.35;2.05;;;;;;;8.53;100.00;99331.19;5086743;28;20399;-82
2022/11/23 01:34:49;;;;;;;10.95;1.33;;;;;;;8.51;100.00;99325.88;5081335;28;20043;-83
2022/11/23 01:37:15;;;;;;;9.95;1.88;;;;;;;8.46;100.00;99326.31;5099813;28;20032;-83
2022/11/23 01:39:40;;;;;;;15.10;2.38;;;;;;;8.43;100.00;99336.66;5081528;28;20417;-83
2022/11/23 01:42:07;;;;;;;14.80;1.75;;;;;;;8.52;100.00;99341.22;5046461;28;20036;-83
2022/11/23 01:44:35;;;;;;;10.70;1.55;;;;;;;8.51;100.00;99335.91;5062230;28;20158;-82
2022/11/23 01:47:05;;;;;;;10.35;1.98;;;;;;;8.64;100.00;99336.44;5083465;28;20113;-83
2022/11/23 01:49:48;;;;;;;10.50;1.85;;;;;;;8.57;100.00;99344.34;5096005;28;20039;-82
2022/11/23 01:52:21;;;;;;;14.38;2.08;;;;;;;8.65;100.00;99343.63;5097849;28;20035;-83
2022/11/23 01:54:52;;;;;;;17.08;2.15;;;;;;;8.61;100.00;99348.53;5092301;28;20040;-82
2022/11/23 01:57:21;;;;;;;12.98;1.90;;;;;;;8.65;100.00;99346.38;5098259;28;20111;-82
2022/11/23 01:59:48;;;;;;;8.57;1.92;;;;;;;8.64;100.00;99359.16;5064287;28;20113;-82
2022/11/23 02:02:15;;;;;;;22.52;2.15;;;;;;;8.58;100.00;99356.16;5077033;28;20077;-83
2022/11/23 02:04:44;;;;;;;15.75;1.85;;;;;;;8.64;100.00;99359.16;5077375;28;20032;-83
2022/11/23 02:07:10;;;;;;;15.48;1.67;;;;;;;8.55;100.00;99351.84;5072445;28;20082;-83
2022/11/23 02:09:36;;;;;;;12.50;1.75;;;;;;;8.56;100.00;99352.69;5062891;28;20025;-82
2022/11/23 02:12:02;;;;;;;18.23;2.25;;;;;;;8.66;100.00;99361.75;5061197;28;20067;-83
2022/11/23 02:14:28;;;;;;;9.93;1.73;;;;;;;8.54;100.00;99352.81;5066401;28;20032;-83
2022/11/23 02:16:57;;;;;;;15.30;2.20;;;;;;;8.57;100.00;99355.28;5093046;28;20040;-83
2022/11/23 02:19:46;;;;;;;17.00;1.95;;;;;;;8.53;100.00;99363.91;5088060;28;20081;-83
2022/11/23 02:22:36;;;;;;;12.80;1.92;;;;;;;8.57;100.00;99366.19;5078638;28;20495;-83
2022/11/23 02:25:08;;;;;;;15.93;1.92;;;;;;;8.50;100.00;99353.28;5078410;28;20036;-83
2022/11/23 02:27:33;;;;;;;14.77;1.92;;;;;;;8.49;100.00;99374.22;5072819;28;20123;-83
2022/11/23 02:30:01;;;;;;;14.23;1.73;;;;;;;8.44;100.00;99351.97;5043788;28;20544;-83
2022/11/23 02:32:27;;;;;;;13.23;2.03;;;;;;;8.48;100.00;99358.00;5047133;28;20052;-83
2022/11/23 02:34:53;;;;;;;17.52;1.80;;;;;;;8.35;100.00;99355.56;5079282;28;20424;-83
2022/11/23 02:37:18;;;;;;;10.85;1.60;;;;;;;8.33;100.00;99358.44;5060311;28;20035;-82
2022/11/23 02:39:47;;;;;;;14.20;1.83;;;;;;;8.20;100.00;99364.19;5087195;28;20036;-82
2022/11/23 02:42:15;;;;;;;13.75;2.88;;;;;;;8.16;100.00;99357.28;5074000;28;20026;-82
2022/11/23 02:44:52;;;;;;;18.05;1.80;;;;;;;8.18;100.00;99365.31;5094701;28;20036;-82
2022/11/23 02:47:18;;;;;;;10.75;1.63;;;;;;;8.19;100.00;99353.41;5074811;28;20036;-82
2022/11/23 02:49:49;;;;;;;12.65;2.47;;;;;;;8.21;100.00;99371.34;5075734;28;20483;-82
2022/11/23 02:52:16;;;;;;;17.23;2.08;;;;;;;8.17;100.00;99359.00;5057991;28;20115;-82
2022/11/23 02:54:41;;;;;;;19.20;2.80;;;;;;;8.07;100.00;99339.06;5094102;28;20028;-83
2022/11/23 02:57:08;;;;;;;18.35;2.35;;;;;;;8.24;100.00;99370.19;5075612;28;20036;-83
2022/11/23 02:59:34;;;;;;;13.18;2.30;;;;;;;8.13;100.00;99365.75;5065992;28;20028;-82
2022/11/23 03:02:01;;;;;;;11.70;2.15;;;;;;;8.22;100.00;99381.25;5090238;28;20024;-83
2022/11/23 03:04:26;;;;;;;15.32;2.20;;;;;;;8.23;100.00;99374.81;5095054;28;20127;-83
2022/11/23 03:06:51;;;;;;;18.80;2.40;;;;;;;8.33;100.00;99373.91;5063073;28;20058;-83
2022/11/23 03:09:17;;;;;;;19.75;3.13;;;;;;;8.17;100.00;99364.47;5053522;28;20040;-82
2022/11/23 03:11:42;;;;;;;12.02;2.03;;;;;;;8.27;100.00;99361.75;5048608;28;20044;-83
2022/11/23 03:14:08;;;;;;;15.75;2.30;;;;;;;8.26;100.00;99362.72;5063840;28;20032;-83
2022/11/23 03:16:33;;;;;;;15.35;1.95;;;;;;;8.24;100.00;99373.78;5073366;28;20127;-83
2022/11/23 03:18:59;;;;;;;12.63;2.28;;;;;;;8.27;100.00;99378.09;5081495;28;20489;-83
2022/11/23 03:21:24;;;;;;;8.80;1.77;;;;;;;8.27;100.00;99376.22;5043324;28;20025;-83
2022/11/23 03:23:50;;;;;;;17.95;3.15;;;;;;;8.27;100.00;99375.38;5075300;28;20043;-83
2022/11/23 03:26:16;;;;;;;12.38;2.55;;;;;;;8.21;100.00;99376.78;5097021;28;20111;-83
2022/11/23 03:28:41;;;;;;;20.38;2.10;;;;;;;8.21;100.00;99379.50;5063337;28;20032;-83
2022/11/23 03:31:07;;;;;;;16.75;2.10;;;;;;;8.23;100.00;99380.25;5093473;28;20044;-83
2022/11/23 03:33:32;;;;;;;15.38;2.55;;;;;;;8.24;100.00;99376.50;5076693;28;20043;-83
2022/11/23 03:35:58;;;;;;;26.73;3.03;;;;;;;8.28;100.00;99380.69;5061716;28;20045;-83
2022/11/23 03:38:23;;;;;;;13.35;1.80;;;;;;;8.24;100.00;99384.69;5080518;28;20035;-83
2022/11/23 03:40:49;;;;;;;16.05;2.28;;;;;;;8.26;100.00;99376.38;5090606;28;20063;-83
2022/11/23 03:43:15;;;;;;;20.95;2.50;;;;;;;8.26;100.00;99390.00;5065178;28;20039;-83
2022/11/23 03:45:41;;;;;;;17.83;2.28;;;;;;;8.27;100.00;99378.09;5041906;28;20039;-83
2022/11/23 03:48:07;;;;;;;19.55;2.75;;;;;;;8.30;100.00;99377.81;5070392;28;20130;-83
2022/11/23 03:50:32;;;;;;;23.55;2.10;;;;;;;8.39;100.00;99387.00;5062066;28;20118;-83
2022/11/23 03:52:58;;;;;;;20.85;2.42;;;;;;;8.36;100.00;99387.28;5078093;28;20039;-82
2022/11/23 03:55:24;;;;;;;24.35;2.72;;;;;;;8.20;100.00;99375.09;5092009;28;20032;-83
2022/11/23 03:57:50;;;;;;;17.67;2.22;;;;;;;8.40;100.00;99392.31;5076594;28;20040;-83
2022/11/23 04:00:16;;;;;;;21.38;1.98;;;;;;;8.30;100.00;99394.19;5082327;28;20066;-83
2022/11/23 04:02:42;;;;;;;16.35;2.33;;;;;;;8.29;100.00;99393.28;5088035;28;20078;-83
2022/11/23 04:05:08;;;;;;;19.45;3.28;;;;;;;8.21;100.00;99395.88;5096695;28;20084;-84
2022/11/23 04:07:33;;;;;;;16.65;2.55;;;;;;;8.24;100.00;99397.47;5096979;28;20059;-83
2022/11/23 04:09:59;;;;;;;28.92;2.20;;;;;;;8.17;100.00;99391.72;5097575;28;20067;-84
2022/11/23 04:12:25;;;;;;;17.92;2.15;;;;;;;8.18;100.00;99396.19;5066538;28;20079;-83
2022/11/23 04:14:51;;;;;;;24.45;2.47;;;;;;;8.28;100.00;99399.78;5075296;28;20031;-84
2022/11/23 04:17:17;;;;;;;19.08;2.90;;;;;;;8.23;100.00;99396.63;5049533;28;20051;-83
2022/11/23 04:19:42;;;;;;;21.85;2.67;;;;;;;8.26;100.00;99396.34;5100337;28;20040;-83
2022/11/23 04:22:07;;;;;;;17.10;1.88;;;;;;;8.18;100.00;99387.13;5082250;28;20031;-83
2022/11/23 04:24:33;;;;;;;17.85;2.58;;;;;;;8.23;100.00;99396.63;5100161;28;20040;-83
2022/11/23 04:26:58;;;;;;;14.57;2.47;;;;;;;8.22;100.00;99389.44;5045871;28;20024;-84
2022/11/23 04:29:23;;;;;;;17.05;1.63;;;;;;;8.24;100.00;99392.88;5042772;28;20057;-84
2022/11/23 04:31:49;;;;;;;19.95;2.45;;;;;;;8.35;100.00;99400.06;5049018;28;20040;-84
2022/11/23 04:34:14;;;;;;;19.02;2.15;;;;;;;8.35;100.00;99393.75;5053869;28;20032;-83
2022/11/23 04:36:40;;;;;;;14.20;2.47;;;;;;;8.39;100.00;99401.47;5065554;28;20107;-83
2022/11/23 04:39:06;;;;;;;19.70;2.85;;;;;;;8.33;100.00;99382.09;5071833;28;20032;-84
2022/11/23 04:41:32;;;;;;;14.02;2.35;;;;;;;8.40;100.00;99405.09;5054056;28;20028;-83
2022/11/23 04:43:57;;;;;;;20.80;2.40;;;;;;;8.34;100.00;99398.31;5082063;28;20411;-84
2022/11/23 04:46:23;;;;;;;22.35;2.42;;;;;;;8.24;100.00;99403.78;5085933;28;20037;-83
2022/11/23 04:48:48;;;;;;;21.88;2.80;;;;;;;8.26;100.00;99398.19;5060807;28;20034;-83
2022/11/23 04:51:15;;;;;;;17.38;2.50;;;;;;;8.23;100.00;99385.72;5048514;28;20043;-84
2022/11/23 04:53:40;;;;;;;20.02;2.75;;;;;;;8.34;100.00;99394.75;5076381;28;20035;-84
2022/11/23 04:56:08;;;;;;;17.52;2.00;;;;;;;8.31;100.00;99403.22;5058561;28;20036;-83
2022/11/23 04:58:35;;;;;;;19.25;1.85;;;;;;;8.16;100.00;99386.41;5093843;28;20048;-84
2022/11/23 05:01:01;;;;;;;19.42;2.25;;;;;;;8.35;100.00;99402.78;5082645;28;20023;-84
2022/11/23 05:03:26;;;;;;;21.73;2.85;;;;;;;8.37;100.00;99397.19;5065008;28;20069;-81
2022/11/23 05:05:52;;;;;;;21.27;2.63;;;;;;;8.35;100.00;99393.75;5074212;28;20036;-83
2022/11/23 05:08:17;;;;;;;14.48;2.22;;;;;;;8.32;100.00;99392.16;5096457;28;20376;-83
2022/11/23 05:10:43;;;;;;;16.73;2.40;;;;;;;8.39;100.00;99389.72;5065940;28;20039;-83
2022/11/23 05:13:08;;;;;;;13.90;2.22;;;;;;;8.46;100.00;99390.88;5081765;28;20048;-83
2022/11/23 05:15:34;;;;;;;17.88;1.95;;;;;;;8.23;100.00;99384.81;5051156;28;20500;-83
2022/11/23 05:18:05;;;;;;;31.20;2.28;;;;;;;8.23;100.00;99388.44;5077172;28;20060;-84
2022/11/23 05:20:31;;;;;;;24.55;3.33;;;;;;;8.20;100.00;99388.72;5091919;28;20089;-83
2022/11/23 05:22:57;;;;;;;22.00;2.90;;;;;;;8.24;100.00;99392.88;5079022;28;20024;-82
2022/11/23 05:25:23;;;;;;;23.30;2.88;;;;;;;8.15;100.00;99390.13;5062808;28;20043;-83
2022/11/23 05:27:48;;;;;;;18.67;2.25;;;;;;;8.13;100.00;99394.88;5083370;28;20043;-84
2022/11/23 05:30:14;;;;;;;17.02;2.03;;;;;;;8.15;100.00;99392.84;5082038;28;20040;-83
2022/11/23 05:32:39;;;;;;;19.90;2.00;;;;;;;8.24;100.00;99390.13;5082288;28;20069;-84
2022/11/23 05:35:05;;;;;;;14.90;1.90;;;;;;;8.12;100.00;99398.59;5064743;28;20384;-83
2022/11/23 05:37:31;;;;;;;28.33;2.95;;;;;;;8.18;100.00;99400.75;5077350;28;20048;-83
2022/11/23 05:39:56;;;;;;;17.63;1.83;;;;;;;7.91;100.00;99370.47;5060129;28;20044;-82
2022/11/23 05:42:22;;;;;;;17.42;1.95;;;;;;;7.98;100.00;99405.31;5061472;28;20032;-83
2022/11/23 05:44:47;;;;;;;15.77;1.77;;;;;;;7.89;100.00;99397.00;5078174;28;20033;-83
2022/11/23 05:47:12;;;;;;;22.90;2.58;;;;;;;7.99;100.00;99399.75;5061945;28;20051;-84
2022/11/23 05:49:38;;;;;;;15.20;1.67;;;;;;;8.05;100.00;99401.03;5054091;28;20499;-83
2022/11/23 05:52:03;;;;;;;20.95;2.70;;;;;;;8.05;100.00;99407.34;5061731;28;20097;-83
2022/11/23 05:54:29;;;;;;;14.48;1.42;;;;;;;8.06;100.00;99394.56;5064369;28;20062;-83
2022/11/23 05:56:55;;;;;;;18.83;2.22;;;;;;;8.08;100.00;99398.03;5090745;28;20085;-83
2022/11/23 05:59:20;;;;;;;24.08;2.90;;;;;;;8.08;100.00;99393.44;5074274;28;20480;-83
2022/11/23 06:01:49;;;;;;;23.52;2.17;;;;;;;7.99;100.00;99385.25;5094913;28;20418;-82
2022/11/23 06:04:14;;;;;;;10.77;1.58;;;;;;;8.12;100.00;99401.31;5044651;28;20047;-82
2022/11/23 06:06:40;;;;;;;29.13;2.28;;;;;;;8.06;100.00;99398.16;5060867;28;20044;-83
2022/11/23 06:09:05;;;;;;;21.05;1.98;;;;;;;7.97;100.00;99406.31;5095120;28;20035;-82
2022/11/23 06:11:31;;;;;;;21.52;1.98;;;;;;;7.99;100.00;99394.28;5057838;28;20048;-82
2022/11/23 06:13:57;;;;;;;10.02;1.30;;;;;;;8.07;100.00;99410.78;5077742;28;20032;-83
2022/11/23 06:16:23;;;;;;;24.30;2.15;;;;;;;8.15;100.00;99407.38;5055960;28;20039;-82
2022/11/23 06:18:50;;;;;;;19.42;1.63;;;;;;;8.11;100.00;99403.19;5066445;28;20384;-82
2022/11/23 06:21:16;;;;;;;25.73;2.60;;;;;;;8.06;100.00;99394.56;5068349;28;20032;-82
2022/11/23 06:23:41;;;;;;;21.83;2.08;;;;;;;8.14;100.00;99402.06;5099301;28;20043;-82
2022/11/23 06:26:07;;;;;;;25.10;2.50;;;;;;;8.08;100.00;99407.06;5043725;28;20533;-82
2022/11/23 06:28:34;;;;;;;29.58;2.00;;;;;;;8.06;100.00;99408.22;5087888;28;20037;-83
2022/11/23 06:31:05;;;;;;;18.67;1.98;;;;;;;8.14;100.00;99405.63;5095284;28;20050;-84
2022/11/23 06:33:31;;;;;;;27.90;3.03;;;;;;;8.03;100.00;99405.75;5077331;28;20062;-83
2022/11/23 06:35:59;;;;;;;16.73;2.55;;;;;;;8.05;100.00;99415.53;5093304;28;20100;-83
2022/11/23 06:38:25;;;;;;;21.83;2.05;;;;;;;8.06;100.00;99405.47;5098158;28;20032;-83
2022/11/23 06:40:51;;;;;;;19.98;2.45;;;;;;;8.09;100.00;99411.50;5094713;28;20060;-83
2022/11/23 06:43:17;;;;;;;15.23;1.60;;;;;;;8.07;100.00;99418.13;5076108;28;20036;-82
2022/11/23 06:45:42;;;;;;;22.25;3.03;;;;;;;8.04;100.00;99419.25;5077679;28;20516;-82
2022/11/23 06:48:08;;;;;;;14.38;2.17;;;;;;;7.97;100.00;99404.47;5087916;28;20032;-83
2022/11/23 06:50:33;;;;;;;18.52;1.90;;;;;;;8.04;100.00;99418.41;5047695;28;20034;-83
2022/11/23 06:52:58;;;;;;;24.60;3.25;;;;;;;7.95;100.00;99406.47;5046704;28;20039;-83
2022/11/23 06:55:24;;;;;;;29.60;2.28;;;;;;;8.04;100.00;99423.84;5049591;28;20048;-83
2022/11/23 06:57:50;;;;;;;22.23;1.50;;;;;;;8.11;100.00;99419.53;5070468;28;20193;-82
2022/11/23 07:00:17;;;;;;;29.58;2.42;;;;;;;8.12;100.00;99425.84;5097174;28;20042;-82
2022/11/23 07:02:43;;;;;;;19.08;3.15;;;;;;;8.08;100.00;99430.72;5044827;28;20028;-83
2022/11/23 07:05:09;;;;;;;16.02;2.25;;;;;;;8.09;100.00;99433.31;5091226;28;20028;-83
2022/11/23 07:07:34;;;;;;;12.02;1.27;;;;;;;8.15;100.00;99440.09;5073619;28;20036;-83
2022/11/23 07:10:00;;;;;;;26.23;2.25;;;;;;;8.12;100.00;99445.81;5085697;28;20036;-84
2022/11/23 07:12:26;;;;;;;15.55;2.22;;;;;;;8.15;100.00;99447.38;5079975;28;20060;-83
2022/11/23 07:14:51;;;;;;;26.15;1.92;;;;;;;8.06;100.00;99439.03;5061042;28;20396;-83
2022/11/23 07:17:17;;;;;;;17.70;2.63;;;;;;;8.05;100.00;99450.97;5058461;28;20043;-83
2022/11/23 07:19:42;;;;;;;16.00;2.90;;;;;;;7.94;100.00;99451.09;5077281;28;20036;-84
2022/11/23 07:22:07;;;;;;;20.85;2.35;;;;;;;7.94;100.00;99452.97;5059354;28;20055;-79
2022/11/23 07:24:33;;;;;;;25.65;2.50;;;;;;;7.91;100.00;99452.22;5077844;28;20059;-80
2022/11/23 07:26:58;;;;;;;16.30;1.88;;;;;;;7.88;100.00;99452.47;5059449;28;20036;-82
2022/11/23 07:29:24;;;;;;;17.60;2.40;;;;;;;7.94;100.00;99461.13;5053415;28;20064;-81
2022/11/23 07:31:49;;;;;;;19.55;2.10;;;;;;;8.00;100.00;99469.63;5085741;28;20032;-81
2022/11/23 07:34:16;;;;;;;17.73;3.13;;;;;;;7.80;100.00;99470.53;5080358;28;20032;-84
2022/11/23 07:36:41;;;;;;;18.02;1.88;;;;;;;7.80;100.00;99476.84;5051389;28;20032;-84
2022/11/23 07:39:07;;;;;;;17.42;2.50;;;;;;;7.47;100.00;99448.91;5079920;28;20035;-84
2022/11/23 07:41:32;;;;;;;20.50;2.72;;;;;;;7.46;100.00;99455.38;5071949;28;20039;-83
2022/11/23 07:43:58;;;;;;;17.92;1.80;;;;;;;7.50;100.00;99475.88;5058672;28;20020;-83
2022/11/23 07:46:23;;;;;;;30.20;2.88;;;;;;;7.47;100.00;99472.56;5050672;28;20140;-84
2022/11/23 07:48:49;;;;;;;21.20;1.98;;;;;;;7.48;100.00;99477.88;5081509;28;20426;-83
2022/11/23 07:51:15;;;;;;;19.35;2.45;;;;;;;7.50;100.00;99483.19;5084069;28;20411;-81
2022/11/23 07:53:41;;;;;;;18.13;2.40;;;;;;;7.55;100.00;99495.38;5067637;28;20059;-82
2022/11/23 07:56:07;;;;;;;21.73;1.85;;;;;;;7.49;100.00;99493.22;5067387;28;20336;-82
2022/11/23 07:58:33;;;;;;;15.02;1.90;;;;;;;7.48;100.00;99491.50;5085337;28;20039;-82
2022/11/23 08:00:59;;;;;;;25.23;2.47;;;;;;;7.52;100.00;99486.63;5083577;28;20425;-82
2022/11/23 08:03:24;;;;;;;15.98;1.80;;;;;;;7.50;100.00;99497.66;5083969;28;20043;-82
2022/11/23 08:05:50;;;;;;;11.98;1.80;;;;;;;7.50;100.00;99496.81;5052091;28;20036;-82
2022/11/23 08:08:15;;;;;;;16.55;2.30;;;;;;;7.40;100.00;99493.16;5066928;28;20032;-82
2022/11/23 08:10:41;;;;;;;14.93;1.90;;;;;;;7.48;100.00;99493.34;5084594;28;20036;-82
2022/11/23 08:13:06;;;;;;;23.63;2.70;;;;;;;7.32;100.00;99478.34;5068451;28;20450;-82
2022/11/23 08:15:32;;;;;;;14.38;1.73;;;;;;;7.38;100.00;99493.31;5069417;28;20025;-82
2022/11/23 08:17:59;;;;;;;18.70;2.03;;;;;;;7.43;100.00;99499.19;5050869;28;20033;-83
2022/11/23 08:20:27;;;;;;;10.00;1.40;;;;;;;7.50;100.00;99505.81;5078052;28;20036;-83
2022/11/23 08:22:54;;;;;;;22.25;2.53;;;;;;;7.51;100.00;99496.66;5105289;28;20032;-83
2022/11/23 08:25:25;;;;;;;15.48;2.00;;;;;;;7.59;100.00;99514.19;5104758;28;20030;-83
2022/11/23 08:27:59;;;;;;;25.45;2.50;;;;;;;7.59;100.00;99515.06;5087003;28;20149;-83
2022/11/23 08:30:26;;;;;;;24.35;2.38;;;;;;;7.60;100.00;99513.19;5092803;28;20583;-83
2022/11/23 08:32:51;;;;;;;15.75;1.98;;;;;;;7.66;100.00;99513.50;5084484;28;20088;-83
2022/11/23 08:35:17;;;;;;;16.15;1.77;;;;;;;7.60;100.00;99507.75;5067411;28;20056;-83
2022/11/23 08:37:42;;;;;;;19.73;2.38;;;;;;;7.57;100.00;99502.56;5092787;28;20032;-83
2022/11/23 08:40:08;;;;;;;15.77;1.65;;;;;;;7.68;100.00;99519.69;5086912;28;20079;-83
2022/11/23 08:42:34;;;;;;;23.25;2.15;;;;;;;7.69;100.00;99515.06;5087443;28;20103;-83
2022/11/23 08:45:01;;;;;;;12.90;1.80;;;;;;;7.55;100.00;99489.94;5103664;28;20036;-83
2022/11/23 08:47:27;;;;;;;14.30;1.90;;;;;;;7.74;100.00;99515.56;5070827;28;20067;-83
2022/11/23 08:49:52;;;;;;;19.55;1.85;;;;;;;7.76;100.00;99508.09;5052646;28;20036;-83
2022/11/23 08:52:18;;;;;;;14.45;2.17;;;;;;;7.94;100.00;99516.50;5087378;28;20054;-83
2022/11/23 08:54:43;;;;;;;21.08;2.28;;;;;;;8.10;100.00;99521.44;5062585;28;20590;-83
2022/11/23 08:57:09;;;;;;;16.67;2.92;;;;;;;8.10;100.00;99514.09;5051076;28;20032;-83
2022/11/23 08:59:34;;;;;;;20.73;2.22;;;;;;;8.17;100.00;99528.03;5085795;28;20029;-83
2022/11/23 09:01:59;;;;;;;13.73;1.77;;;;;;;8.09;100.00;99506.91;5056510;28;20039;-83
2022/11/23 09:04:26;;;;;;;16.17;1.95;;;;;;;8.22;100.00;99520.31;5070141;28;20076;-82
2022/11/23 09:06:52;;;;;;;20.55;2.17;;;;;;;8.36;100.00;99524.50;5070318;28;20050;-83
2022/11/23 09:09:18;;;;;;;17.50;2.22;;;;;;;8.43;100.00;99519.38;5087818;28;20107;-83
2022/11/23 09:11:43;;;;;;;22.58;2.65;;;;;;;8.42;100.00;99529.38;5070467;28;20052;-83
2022/11/23 09:14:09;;;;;;;18.75;1.83;;;;;;;8.43;100.00;99514.78;5089317;28;20027;-83
2022/11/23 09:16:34;;;;;;;16.20;2.15;;;;;;;8.40;100.00;99508.72;5088932;28;20138;-83
2022/11/23 09:18:59;;;;;;;15.55;2.25;;;;;;;8.54;100.00;99523.84;5087995;28;20046;-83
2022/11/23 09:21:29;;;;;;;18.80;2.00;;;;;;;8.68;100.00;99525.31;5052532;28;20028;-83
2022/11/23 09:23:55;;;;;;;20.08;3.15;;;;;;;8.76;100.00;99520.84;5037878;28;20108;-83
2022/11/23 09:26:21;;;;;;;18.42;1.77;;;;;;;8.94;100.00;99510.06;5086216;28;20357;-82
2022/11/23 09:28:47;;;;;;;9.18;1.52;;;;;;;9.05;100.00;99520.00;5069173;28;20115;-83
2022/11/23 09:31:12;;;;;;;15.48;2.00;;;;;;;9.00;100.00;99512.22;5072994;28;20036;-83
2022/11/23 09:33:38;;;;;;;20.73;2.03;;;;;;;9.05;100.00;99495.41;5074726;28;20028;-83
2022/11/23 09:36:03;;;;;;;17.48;2.10;;;;;;;9.21;100.00;99511.19;5074027;28;20460;-82
2022/11/23 09:38:29;;;;;;;15.98;1.60;;;;;;;9.21;100.00;99494.78;5107453;28;20058;-83
2022/11/23 09:41:22;;;;;;;21.02;1.80;;;;;;;9.22;100.00;99512.06;5074161;28;20032;-83
2022/11/23 09:43:59;;;;;;;23.83;2.22;;;;;;;9.31;100.00;99509.31;5087047;28;20036;-83
2022/11/23 09:46:40;;;;;;;9.88;1.27;;;;;;;9.30;100.00;99496.66;5072334;28;20043;-83
2022/11/23 09:49:12;;;;;;;31.55;2.40;;;;;;;9.34;100.00;99470.75;5090094;28;20066;-83
2022/11/23 09:51:40;;;;;;;13.07;2.10;;;;;;;9.33;100.00;99501.84;5072618;28;20024;-83
2022/11/23 09:54:14;;;;;;;22.33;1.50;;;;;;;9.14;100.00;99501.88;5072871;28;20037;-83
2022/11/23 09:56:40;;;;;;;13.55;1.50;;;;;;;9.20;100.00;99491.22;5073836;28;20109;-83
2022/11/23 09:59:19;;;;;;;17.55;1.77;;;;;;;9.38;100.00;99491.31;5089029;28;20052;-83
2022/11/23 10:01:44;;;;;;;14.05;1.48;;;;;;;9.26;100.00;99486.16;5108413;28;20055;-83
2022/11/23 10:04:17;;;;;;;17.42;1.92;;;;;;;9.41;100.00;99473.75;5091416;28;20040;-82
2022/11/23 10:06:43;;;;;;;;;;;;;;;9.45;100.00;99479.81;5074289;28;20024;-83
2022/11/23 10:09:53;;;;;;;21.27;1.73;;;;;;;9.49;100.00;99473.88;5092263;28;19931;-83
2022/11/23 10:12:32;;;;;;;17.35;1.98;;;;;;;9.51;100.00;99460.94;5073818;28;20044;-83
2022/11/23 10:15:10;;;;;;;21.35;1.98;;;;;;;9.43;100.00;99449.91;5089753;28;20024;-83
2022/11/23 10:17:52;;;;;;;13.88;1.77;;;;;;;9.51;100.00;99452.75;5088455;28;20073;-83
2022/11/23 10:20:50;;;;;;;15.70;1.73;;;;;;;9.69;100.00;99455.56;5090382;28;20020;-83
2022/11/23 10:23:33;;;;;;;11.90;1.70;;;;;;;9.78;100.00;99456.50;5080871;28;20039;-83
2022/11/23 10:25:59;;;;;;;20.80;2.35;;;;;;;9.69;100.00;99444.63;5076533;28;20039;-83
2022/11/23 10:28:28;;;;;;;20.90;2.58;;;;;;;9.95;100.00;99419.28;5080290;28;20092;-83
2022/11/23 10:31:14;;;;;;;13.18;1.10;;;;;;;10.31;100.00;99438.47;5096374;28;20032;-83
2022/11/23 10:33:45;;;;;;;15.98;2.58;;;;;;;10.43;100.00;99429.09;5084326;28;20395;-83
2022/11/23 10:36:15;;;;;;;12.77;1.63;;;;;;;10.32;100.00;99412.00;5077607;28;20028;-83
2022/11/23 10:38:41;;;;;;;17.70;1.75;;;;;;;10.51;100.00;99419.22;5077388;28;20033;-83
2022/11/23 10:41:09;;;;;;;16.02;1.45;;;;;;;10.44;100.00;99430.78;5090082;28;20028;-82
2022/11/23 10:43:54;;;;;;;17.42;1.90;;;;;;;10.40;100.00;99425.81;5092014;28;20040;-83
2022/11/23 10:46:34;;;;;;;19.42;2.03;;;;;;;10.26;100.00;99421.69;5091924;28;20024;-83
2022/11/23 10:49:10;;;;;;;10.60;1.80;;;;;;;10.48;100.00;99428.63;5108212;28;20028;-83
2022/11/23 10:51:36;;;;;;;12.15;1.83;;;;;;;10.23;100.00;99411.03;5095434;28;20047;-83
2022/11/23 10:54:05;;;;;;;10.30;1.40;;;;;;;10.50;100.00;99423.00;5078859;28;20065;-83
2022/11/23 10:56:31;;;;;;;15.05;1.63;;;;;;;10.52;100.00;99420.94;5095221;28;20024;-83
2022/11/23 10:58:57;;;;;;;15.40;1.77;;;;;;;10.52;100.00;99420.94;5112874;28;20063;-82
2022/11/23 11:01:28;;;;;;;25.45;2.15;;;;;;;10.72;100.00;99407.94;5074182;28;20025;-83
2022/11/23 11:03:55;;;;;;;20.75;1.60;;;;;;;10.56;100.00;99422.34;5076146;28;20027;-83
2022/11/23 11:06:26;;;;;;;13.25;2.45;;;;;;;10.18;100.00;99395.09;5058045;28;20044;-83
2022/11/23 11:08:55;;;;;;;17.00;1.90;;;;;;;10.20;100.00;99411.34;5091819;28;20029;-83
2022/11/23 11:11:28;;;;;;;17.13;2.55;;;;;;;10.50;100.00;99410.16;5100350;28;20028;-83
2022/11/23 11:14:12;;;;;;;19.73;1.40;;;;;;;10.30;100.00;99390.28;5094217;28;20039;-83
2022/11/23 11:16:47;;;;;;;17.38;1.77;;;;;;;10.47;100.00;99394.91;5095489;28;20479;-83
2022/11/23 11:19:20;;;;;;;23.25;2.97;;;;;;;10.50;100.00;99404.69;5095518;28;20023;-82
2022/11/23 11:21:49;;;;;;;12.48;1.40;;;;;;;10.46;100.00;99389.59;5110467;28;20055;-83
2022/11/23 11:24:21;;;;;;;18.48;1.40;;;;;;;10.63;100.00;99388.72;5091514;28;20029;-83
2022/11/23 11:26:56;;;;;;;7.38;0.85;;;;;;;10.57;100.00;99407.66;5091599;28;20025;-83